createdAt,value
2022-08-21T00:00:25.491Z,56.08
2022-08-21T00:03:05.873Z,47.65
2022-08-21T00:05:39.658Z,52.47
2022-08-21T00:08:07.283Z,57.13
2022-08-21T00:10:35.007Z,54.58
2022-08-21T00:13:05.261Z,59.35
2022-08-21T00:15:36.274Z,62.03
2022-08-21T00:18:06.221Z,53.22
2022-08-21T00:20:35.597Z,56.53
2022-08-21T00:23:03.040Z,58.92
2022-08-21T00:25:30.119Z,62.03
2022-08-21T00:27:57.850Z,61.55
2022-08-21T00:30:27.310Z,64.38
2022-08-21T00:32:56.704Z,66.40
2022-08-21T00:35:32.696Z,67.25
2022-08-21T00:38:00.601Z,66.90
2022-08-21T00:40:36.087Z,83.05
2022-08-21T00:43:10.332Z,66.13
2022-08-21T00:45:38.402Z,67.13
2022-08-21T00:48:06.076Z,71.55
2022-08-21T00:50:38.740Z,67.68
2022-08-21T00:53:08.788Z,72.30
2022-08-21T00:55:38.472Z,73.97
2022-08-21T00:58:26.721Z,69.38
2022-08-21T01:00:57.038Z,74.32
2022-08-21T01:03:26.429Z,71.60
2022-08-21T01:05:54.064Z,66.07
2022-08-21T01:08:22.960Z,69.25
2022-08-21T01:10:54.708Z,77.07
2022-08-21T01:13:28.451Z,79.68
2022-08-21T01:16:01.430Z,72.20
2022-08-21T01:18:30.061Z,78.32
2022-08-21T01:21:07.212Z,69.55
2022-08-21T01:23:37.452Z,65.03
2022-08-21T01:26:06.780Z,59.92
2022-08-21T01:28:41.926Z,44.30
2022-08-21T01:31:13.026Z,37.88
2022-08-21T01:33:41.372Z,38.78
2022-08-21T01:36:08.866Z,28.98
2022-08-21T01:38:35.915Z,23.23
2022-08-21T01:41:03.056Z,23.23
2022-08-21T01:43:34.783Z,22.25
2022-08-21T01:46:07.342Z,23.05
2022-08-21T01:48:46.134Z,22.42
2022-08-21T01:51:28.879Z,22.65
2022-08-21T01:53:59.515Z,19.90
2022-08-21T01:56:36.307Z,19.92
2022-08-21T01:59:11.220Z,21.98
2022-08-21T02:01:48.507Z,20.15
2022-08-21T02:04:22.535Z,21.23
2022-08-21T02:06:55.658Z,19.92
2022-08-21T02:09:34.198Z,18.42
2022-08-21T02:12:01.616Z,21.58
2022-08-21T02:14:42.386Z,21.35
2022-08-21T02:17:20.433Z,20.88
2022-08-21T02:19:56.679Z,19.25
2022-08-21T02:22:31.168Z,21.63
2022-08-21T02:24:58.356Z,20.73
2022-08-21T02:27:27.401Z,20.58
2022-08-21T02:29:58.604Z,20.60
2022-08-21T02:32:27.025Z,20.42
2022-08-21T02:34:54.402Z,19.92
2022-08-21T02:37:21.876Z,23.00
2022-08-21T02:39:49.159Z,24.92
2022-08-21T02:42:17.140Z,27.10
2022-08-21T02:44:48.922Z,22.25
2022-08-21T02:47:16.003Z,23.80
2022-08-21T02:49:44.706Z,22.65
2022-08-21T02:52:12.845Z,21.48
2022-08-21T02:54:39.904Z,21.88
2022-08-21T02:57:06.930Z,25.75
2022-08-21T02:59:33.932Z,24.83
2022-08-21T03:02:01.073Z,22.98
2022-08-21T03:04:28.088Z,24.45
2022-08-21T03:06:55.116Z,23.00
2022-08-21T03:09:22.164Z,24.15
2022-08-21T03:11:49.164Z,24.17
2022-08-21T03:14:16.480Z,21.77
2022-08-21T03:16:43.627Z,23.40
2022-08-21T03:19:10.949Z,24.75
2022-08-21T03:21:40.963Z,22.77
2022-08-21T03:24:13.462Z,23.05
2022-08-21T03:26:42.066Z,23.10
2022-08-21T03:29:09.087Z,25.10
2022-08-21T03:31:36.071Z,19.90
2022-08-21T03:34:03.082Z,21.88
2022-08-21T03:36:32.631Z,24.77
2022-08-21T03:38:59.818Z,23.10
2022-08-21T03:41:26.881Z,22.10
2022-08-21T03:43:54.807Z,23.52
2022-08-21T03:46:21.973Z,26.67
2022-08-21T03:48:49.758Z,21.25
2022-08-21T03:51:16.742Z,28.33
2022-08-21T03:53:45.838Z,30.33
2022-08-21T03:56:16.536Z,28.17
2022-08-21T03:58:54.319Z,29.80
2022-08-21T04:01:25.368Z,29.42
2022-08-21T04:03:53.940Z,28.15
2022-08-21T04:06:27.227Z,30.20
2022-08-21T04:08:57.333Z,28.50
2022-08-21T04:11:24.822Z,30.83
2022-08-21T04:13:52.349Z,28.27
2022-08-21T04:16:20.448Z,31.50
2022-08-21T04:18:47.432Z,33.45
2022-08-21T04:21:14.625Z,33.50
2022-08-21T04:23:42.726Z,38.70
2022-08-21T04:26:09.995Z,30.35
2022-08-21T04:28:36.974Z,27.73
2022-08-21T04:31:04.318Z,30.45
2022-08-21T04:33:31.506Z,30.23
2022-08-21T04:35:58.539Z,30.17
2022-08-21T04:38:25.578Z,33.47
2022-08-21T04:40:52.970Z,33.38
2022-08-21T04:43:21.576Z,31.77
2022-08-21T04:45:51.375Z,30.42
2022-08-21T04:48:27.382Z,28.13
2022-08-21T04:51:12.991Z,29.05
2022-08-21T04:54:00.013Z,28.65
2022-08-21T04:56:39.809Z,30.77
2022-08-21T04:59:22.076Z,30.10
2022-08-21T05:01:50.167Z,31.20
2022-08-21T05:04:23.404Z,27.45
2022-08-21T05:06:55.707Z,33.72
2022-08-21T05:09:25.225Z,32.92
2022-08-21T05:11:54.003Z,38.72
2022-08-21T05:14:22.482Z,32.42
2022-08-21T05:16:49.731Z,32.63
2022-08-21T05:19:16.735Z,32.28
2022-08-21T05:21:46.445Z,30.70
2022-08-21T05:24:16.969Z,30.85
2022-08-21T05:26:45.929Z,33.13
2022-08-21T05:29:16.300Z,38.58
2022-08-21T05:31:44.756Z,31.08
2022-08-21T05:34:16.395Z,35.67
